createdAt,value
2022-09-13T00:01:11.867Z,42.53
2022-09-13T00:03:38.805Z,42.30
2022-09-13T00:06:17.764Z,42.43
2022-09-13T00:08:45.381Z,43.22
2022-09-13T00:11:18.799Z,42.37
2022-09-13T00:13:46.043Z,43.42
2022-09-13T00:16:17.860Z,42.93
2022-09-13T00:18:45.022Z,42.82
2022-09-13T00:21:17.058Z,42.12
2022-09-13T00:23:45.659Z,42.54
2022-09-13T00:26:15.112Z,42.88
2022-09-13T00:28:42.690Z,43.15
2022-09-13T00:31:09.940Z,42.33
2022-09-13T00:33:37.198Z,42.23
2022-09-13T00:36:09.170Z,43.12
2022-09-13T00:38:37.175Z,43.03
2022-09-13T00:41:05.880Z,43.10
2022-09-13T00:43:45.581Z,42.76
2022-09-13T00:46:24.399Z,42.25
2022-09-13T00:48:55.423Z,42.51
2022-09-13T00:51:22.601Z,43.38
2022-09-13T00:53:55.380Z,43.07
2022-09-13T00:56:29.906Z,42.76
2022-09-13T00:59:13.572Z,43.36
2022-09-13T01:01:52.287Z,42.50
2022-09-13T01:04:22.825Z,42.72
2022-09-13T01:06:52.014Z,42.26
2022-09-13T01:09:18.823Z,42.25
2022-09-13T01:12:03.798Z,42.75
2022-09-13T01:14:33.159Z,42.35
2022-09-13T01:17:00.609Z,42.44
2022-09-13T01:19:27.763Z,43.03
2022-09-13T01:21:54.492Z,42.61
2022-09-13T01:24:41.507Z,42.80
2022-09-13T01:27:45.009Z,44.70
2022-09-13T01:30:47.597Z,42.28
2022-09-13T01:33:32.640Z,43.27
2022-09-13T01:36:24.137Z,44.56
2022-09-13T01:39:04.575Z,44.29
2022-09-13T01:42:27.064Z,43.23
2022-09-13T01:44:56.685Z,43.06
2022-09-13T01:47:41.714Z,43.03
2022-09-13T01:50:23.424Z,43.69
2022-09-13T01:52:57.028Z,43.66
2022-09-13T01:55:32.915Z,43.62
2022-09-13T01:58:18.192Z,43.82
2022-09-13T02:00:56.863Z,43.52
2022-09-13T02:03:37.096Z,43.86
2022-09-13T02:06:20.177Z,44.22
2022-09-13T02:08:53.250Z,43.35
2022-09-13T02:11:22.530Z,43.52
2022-09-13T02:14:09.047Z,43.96
2022-09-13T02:16:58.671Z,43.87
2022-09-13T02:19:52.991Z,43.43
2022-09-13T02:22:25.543Z,44.01
2022-09-13T02:24:57.763Z,43.77
2022-09-13T02:27:27.635Z,44.97
2022-09-13T02:30:01.272Z,44.91
2022-09-13T02:32:37.251Z,44.11
2022-09-13T02:35:14.170Z,44.65
2022-09-13T02:37:45.187Z,44.18
2022-09-13T02:40:22.157Z,44.70
2022-09-13T02:42:59.308Z,43.59
2022-09-13T02:45:34.569Z,44.22
2022-09-13T02:48:10.359Z,44.46
2022-09-13T02:50:59.568Z,45.10
2022-09-13T02:53:29.328Z,45.02
2022-09-13T02:56:14.648Z,46.47
2022-09-13T02:58:55.202Z,45.37
2022-09-13T03:01:22.314Z,45.89
2022-09-13T03:03:49.358Z,45.76
2022-09-13T03:06:29.420Z,45.98
2022-09-13T03:09:00.554Z,46.74
2022-09-13T03:11:55.159Z,45.28
2022-09-13T03:14:36.938Z,45.87
2022-09-13T03:17:34.689Z,44.17
2022-09-13T03:20:23.067Z,44.71
2022-09-13T03:22:52.611Z,44.84
2022-09-13T03:25:54.241Z,44.34
2022-09-13T03:28:29.937Z,44.28
2022-09-13T03:31:11.309Z,44.47
2022-09-13T03:33:45.130Z,45.34
2022-09-13T03:36:38.184Z,43.79
2022-09-13T03:39:26.770Z,45.40
2022-09-13T03:42:00.110Z,45.92
2022-09-13T03:44:29.979Z,44.49
2022-09-13T03:47:01.310Z,44.41
2022-09-13T03:49:30.901Z,44.19
2022-09-13T03:51:58.442Z,44.23
2022-09-13T03:54:29.896Z,43.61
2022-09-13T03:57:13.626Z,43.32
2022-09-13T03:59:58.695Z,43.80
2022-09-13T04:02:27.008Z,44.84
2022-09-13T04:04:53.894Z,44.81
2022-09-13T04:07:24.942Z,44.00
2022-09-13T04:09:53.107Z,43.66
2022-09-13T04:12:20.302Z,44.06
2022-09-13T04:14:48.203Z,44.05
2022-09-13T04:17:15.632Z,44.52
2022-09-13T04:19:44.719Z,44.18
2022-09-13T04:22:11.719Z,44.09
2022-09-13T04:24:39.849Z,43.99
2022-09-13T04:27:07.241Z,44.18
2022-09-13T04:29:33.965Z,44.26
2022-09-13T04:32:01.337Z,45.11
2022-09-13T04:34:28.105Z,44.85
2022-09-13T04:36:55.451Z,44.32
2022-09-13T04:39:23.828Z,45.02
2022-09-13T04:41:52.046Z,44.57
2022-09-13T04:44:19.099Z,45.28
2022-09-13T04:46:49.434Z,44.83
2022-09-13T04:49:20.115Z,44.73
2022-09-13T04:51:47.667Z,44.74
2022-09-13T04:54:16.196Z,44.25
2022-09-13T04:56:44.737Z,44.52
2022-09-13T04:59:12.347Z,44.31
2022-09-13T05:01:39.817Z,44.55
2022-09-13T05:04:07.863Z,44.50
2022-09-13T05:06:34.997Z,44.42
2022-09-13T05:09:02.365Z,44.47
2022-09-13T05:11:29.922Z,44.15
2022-09-13T05:13:58.987Z,44.67
2022-09-13T05:16:31.298Z,44.26
2022-09-13T05:18:59.043Z,43.91
2022-09-13T05:21:27.846Z,43.28
2022-09-13T05:23:56.309Z,43.14
2022-09-13T05:26:26.097Z,43.05
2022-09-13T05:28:53.624Z,43.01
2022-09-13T05:31:28.183Z,42.27
2022-09-13T05:34:01.673Z,41.70
2022-09-13T05:36:29.152Z,41.58
2022-09-13T05:39:18.762Z,41.51
2022-09-13T05:41:43.787Z,41.35
2022-09-13T05:44:13.562Z,41.10
2022-09-13T05:46:42.292Z,40.71
2022-09-13T05:49:09.116Z,41.35
2022-09-13T05:51:36.428Z,40.72
2022-09-13T05:54:03.549Z,41.13
2022-09-13T05:56:31.004Z,41.67
2022-09-13T05:59:01.544Z,42.49
2022-09-13T06:01:29.484Z,41.29
2022-09-13T06:03:59.285Z,41.24
2022-09-13T06:06:26.586Z,41.02
2022-09-13T06:08:54.771Z,41.80
2022-09-13T06:11:22.428Z,41.09
2022-09-13T06:13:49.177Z,40.77
2022-09-13T06:16:17.379Z,41.00
2022-09-13T06:18:45.286Z,40.25
2022-09-13T06:21:18.381Z,40.59
2022-09-13T06:23:51.204Z,40.97
2022-09-13T06:26:20.206Z,40.63
2022-09-13T06:28:49.119Z,41.27
2022-09-13T06:31:18.278Z,40.83
2022-09-13T06:33:45.333Z,40.35
2022-09-13T06:36:20.292Z,40.67
2022-09-13T06:38:49.022Z,40.55
2022-09-13T06:41:20.518Z,41.07
2022-09-13T06:43:48.267Z,40.29
2022-09-13T06:46:20.448Z,41.32
2022-09-13T06:48:51.084Z,41.47
2022-09-13T06:51:20.379Z,41.23
2022-09-13T06:53:48.668Z,40.43
2022-09-13T06:56:18.917Z,40.67
2022-09-13T06:58:47.231Z,40.69
2022-09-13T07:01:23.187Z,40.19
2022-09-13T07:03:53.075Z,39.82
2022-09-13T07:06:24.955Z,39.59
2022-09-13T07:08:52.285Z,39.90
2022-09-13T07:11:22.607Z,39.75
2022-09-13T07:13:51.303Z,40.42
2022-09-13T07:16:19.512Z,40.25
2022-09-13T07:18:57.887Z,39.29
2022-09-13T07:21:26.170Z,39.44
2022-09-13T07:23:55.259Z,38.24
2022-09-13T07:26:22.792Z,38.44
2022-09-13T07:28:52.402Z,37.85
2022-09-13T07:31:29.831Z,38.54
2022-09-13T07:33:59.337Z,38.46
2022-09-13T07:36:27.518Z,38.60
2022-09-13T07:38:54.580Z,38.95
2022-09-13T07:41:23.469Z,37.44
2022-09-13T07:43:51.877Z,37.59
2022-09-13T07:46:21.366Z,37.25
2022-09-13T07:48:49.799Z,37.80
2022-09-13T07:51:22.874Z,36.58
2022-09-13T07:53:56.957Z,36.23
2022-09-13T07:56:51.720Z,36.24
2022-09-13T07:59:19.633Z,35.34
2022-09-13T08:01:51.215Z,37.00
2022-09-13T08:04:21.591Z,35.15
2022-09-13T08:06:49.022Z,35.55
2022-09-13T08:09:16.309Z,35.10
2022-09-13T08:11:48.852Z,37.14
2022-09-13T08:14:18.211Z,35.67
2022-09-13T08:16:45.090Z,34.23
2022-09-13T08:19:18.745Z,34.34
2022-09-13T08:21:47.027Z,33.76
2022-09-13T08:24:16.794Z,34.72
2022-09-13T08:26:44.424Z,34.33
2022-09-13T08:29:12.517Z,34.16
2022-09-13T08:31:39.305Z,34.35
2022-09-13T08:34:11.532Z,31.90
2022-09-13T08:36:38.432Z,33.01
2022-09-13T08:39:05.117Z,33.08
2022-09-13T08:41:52.308Z,33.03
2022-09-13T08:44:35.998Z,31.10
2022-09-13T08:47:24.874Z,31.19
2022-09-13T08:50:06.801Z,31.17
2022-09-13T08:52:39.397Z,32.17
2022-09-13T08:55:47.851Z,32.19
2022-09-13T08:58:38.989Z,31.21
2022-09-13T09:01:27.786Z,30.22
2022-09-13T09:04:06.756Z,30.06
2022-09-13T09:06:35.412Z,30.43
2022-09-13T09:09:10.571Z,30.39
2022-09-13T09:12:00.118Z,31.25
2022-09-13T09:14:32.715Z,29.39
2022-09-13T09:17:06.542Z,29.46
2022-09-13T09:19:38.164Z,30.45
2022-09-13T09:22:13.299Z,29.46
2022-09-13T09:24:44.237Z,28.39
2022-09-13T09:27:16.361Z,28.07
2022-09-13T09:29:44.673Z,28.94
2022-09-13T09:32:31.368Z,28.88
2022-09-13T09:35:20.175Z,28.32
2022-09-13T09:38:02.846Z,28.25
2022-09-13T09:40:31.773Z,28.05
2022-09-13T09:42:58.688Z,28.12
2022-09-13T09:45:33.516Z,28.57
2022-09-13T09:48:09.380Z,29.07
2022-09-13T09:50:49.463Z,30.12
2022-09-13T09:53:19.231Z,29.64
2022-09-13T09:56:15.114Z,27.94
2022-09-13T09:58:44.565Z,28.38
2022-09-13T10:01:26.575Z,28.44
2022-09-13T10:04:19.885Z,28.01
2022-09-13T10:06:47.162Z,28.54
2022-09-13T10:09:13.837Z,29.08
2022-09-13T10:11:50.349Z,28.94
2022-09-13T10:14:35.361Z,28.54
2022-09-13T10:17:12.755Z,28.06
2022-09-13T10:19:39.667Z,27.97
2022-09-13T10:22:11.681Z,29.23
2022-09-13T10:24:39.382Z,27.92
2022-09-13T10:27:39.337Z,28.75
2022-09-13T10:30:28.932Z,28.66
2022-09-13T10:32:57.658Z,27.82
2022-09-13T10:35:25.044Z,27.23
2022-09-13T10:37:52.265Z,27.69
2022-09-13T10:40:38.350Z,26.45
2022-09-13T10:43:16.153Z,27.03
2022-09-13T10:45:43.184Z,26.60
2022-09-13T10:48:16.622Z,27.81
2022-09-13T10:51:04.635Z,26.88
2022-09-13T10:53:41.042Z,26.55
2022-09-13T10:56:21.470Z,26.82
2022-09-13T10:58:48.497Z,26.49
2022-09-13T11:01:20.824Z,26.41
2022-09-13T11:03:56.814Z,26.71
2022-09-13T11:06:49.004Z,26.41
2022-09-13T11:09:51.251Z,26.31
2022-09-13T11:13:00.327Z,25.35
2022-09-13T11:15:53.332Z,25.56
2022-09-13T11:18:22.993Z,25.68
2022-09-13T11:21:14.530Z,25.72
2022-09-13T11:23:59.662Z,25.92
2022-09-13T11:26:35.038Z,25.40
2022-09-13T11:29:10.970Z,25.51
2022-09-13T11:31:46.483Z,26.25
2022-09-13T11:34:51.802Z,25.49
2022-09-13T11:37:45.804Z,25.14
2022-09-13T11:40:49.906Z,23.87
2022-09-13T11:43:58.684Z,24.78
2022-09-13T11:46:49.017Z,24.23
2022-09-13T11:49:35.460Z,24.37
2022-09-13T11:52:44.117Z,24.29
2022-09-13T11:55:36.559Z,24.88
2022-09-13T11:58:09.912Z,25.59
2022-09-13T12:00:44.026Z,24.76
2022-09-13T12:03:11.274Z,24.87
2022-09-13T12:05:46.250Z,24.72
2022-09-13T12:08:20.043Z,24.90
2022-09-13T12:10:56.934Z,24.26
2022-09-13T12:13:35.354Z,23.97
2022-09-13T12:16:09.860Z,24.39
2022-09-13T12:18:44.599Z,24.52
2022-09-13T12:21:15.004Z,25.57
2022-09-13T12:24:02.451Z,24.12
2022-09-13T12:26:52.489Z,23.68
2022-09-13T12:29:28.283Z,23.93
2022-09-13T12:32:00.432Z,23.71
2022-09-13T12:34:42.994Z,23.36
2022-09-13T12:37:38.774Z,23.36
2022-09-13T12:40:24.143Z,23.21
2022-09-13T12:43:11.202Z,23.81
2022-09-13T12:45:58.480Z,23.65
2022-09-13T12:48:53.239Z,23.87
2022-09-13T12:51:27.899Z,24.59
2022-09-13T12:54:16.500Z,24.67
2022-09-13T12:57:10.359Z,24.10
2022-09-13T12:59:59.084Z,23.05
2022-09-13T13:02:32.569Z,23.33
2022-09-13T13:05:27.665Z,22.37
2022-09-13T13:08:17.786Z,22.60
2022-09-13T13:10:45.340Z,21.99
2022-09-13T13:13:31.861Z,22.05
2022-09-13T13:16:02.594Z,23.43
2022-09-13T13:18:48.540Z,23.81
2022-09-13T13:21:39.157Z,23.46
2022-09-13T13:24:21.193Z,23.25
2022-09-13T13:26:53.964Z,23.18
2022-09-13T13:29:23.707Z,22.89
2022-09-13T13:32:07.642Z,23.10
2022-09-13T13:34:38.227Z,22.77
2022-09-13T13:37:06.469Z,23.42
2022-09-13T13:39:36.191Z,24.55
2022-09-13T13:42:13.606Z,24.38
2022-09-13T13:44:43.682Z,23.51
2022-09-13T13:47:16.372Z,23.60
2022-09-13T13:49:50.119Z,23.28
2022-09-13T13:52:18.971Z,23.25
2022-09-13T13:54:59.936Z,22.78
2022-09-13T13:57:44.633Z,22.31
2022-09-13T14:00:16.885Z,22.36
2022-09-13T14:02:56.915Z,22.30
2022-09-13T14:05:38.840Z,21.52
2022-09-13T14:08:30.182Z,21.71
2022-09-13T14:10:59.963Z,21.74
2022-09-13T14:13:38.992Z,21.98
2022-09-13T14:16:27.351Z,22.50
2022-09-13T14:19:23.899Z,22.16
2022-09-13T14:22:15.808Z,23.03
2022-09-13T14:24:46.508Z,22.61
2022-09-13T14:27:17.046Z,22.93
2022-09-13T14:29:53.071Z,22.65
2022-09-13T14:32:24.392Z,22.29
2022-09-13T14:34:58.381Z,22.63
2022-09-13T14:37:31.400Z,22.52
2022-09-13T14:40:11.396Z,23.37
2022-09-13T14:42:44.742Z,22.10
2022-09-13T14:45:36.774Z,22.59
2022-09-13T14:48:12.768Z,22.01
2022-09-13T14:50:47.038Z,21.65
2022-09-13T14:53:18.629Z,21.72
2022-09-13T14:55:52.718Z,21.54
2022-09-13T14:58:30.626Z,22.08
2022-09-13T15:01:02.276Z,22.06
2022-09-13T15:03:29.768Z,21.60
2022-09-13T15:05:58.804Z,21.83
2022-09-13T15:08:37.494Z,21.45
2022-09-13T15:11:07.294Z,21.82
2022-09-13T15:13:35.095Z,22.04
2022-09-13T15:16:02.815Z,22.21
2022-09-13T15:18:36.944Z,21.89
2022-09-13T15:21:18.083Z,22.38
2022-09-13T15:23:54.145Z,23.14
2022-09-13T15:26:25.472Z,22.78
2022-09-13T15:28:59.196Z,22.86
2022-09-13T15:31:28.718Z,23.72
2022-09-13T15:34:17.647Z,23.90
2022-09-13T15:37:12.275Z,24.29
2022-09-13T15:39:49.838Z,24.48
2022-09-13T15:42:17.605Z,24.81
2022-09-13T15:44:44.646Z,25.56
2022-09-13T15:47:19.167Z,25.20
2022-09-13T15:49:51.114Z,25.10
2022-09-13T15:52:19.659Z,24.78
2022-09-13T15:54:51.005Z,24.65
2022-09-13T15:57:23.394Z,25.16
2022-09-13T15:59:50.954Z,25.12
2022-09-13T16:02:24.000Z,24.87
2022-09-13T16:04:52.485Z,24.98
2022-09-13T16:07:20.199Z,25.17
2022-09-13T16:09:48.292Z,25.04
2022-09-13T16:12:15.232Z,24.54
2022-09-13T16:14:42.922Z,24.84
2022-09-13T16:17:19.368Z,25.21
2022-09-13T16:19:46.635Z,25.29
2022-09-13T16:22:13.585Z,25.41
2022-09-13T16:24:40.516Z,25.83
2022-09-13T16:27:07.552Z,25.62
2022-09-13T16:29:34.347Z,26.52
2022-09-13T16:32:01.850Z,25.87
2022-09-13T16:34:28.729Z,26.28
2022-09-13T16:36:55.413Z,26.05
2022-09-13T16:39:22.496Z,26.64
2022-09-13T16:41:49.213Z,27.63
2022-09-13T16:44:16.408Z,27.72
2022-09-13T16:46:43.289Z,27.60
2022-09-13T16:49:10.406Z,28.50
2022-09-13T16:51:37.905Z,28.05
2022-09-13T16:54:06.332Z,27.38
2022-09-13T16:56:33.285Z,27.97
2022-09-13T16:59:01.016Z,27.69
2022-09-13T17:01:29.920Z,28.22
2022-09-13T17:03:57.517Z,28.21
2022-09-13T17:06:26.240Z,28.81
2022-09-13T17:09:01.194Z,28.42
2022-09-13T17:11:31.310Z,28.20
2022-09-13T17:13:59.050Z,28.95
2022-09-13T17:16:45.081Z,28.11
2022-09-13T17:19:17.313Z,29.11
2022-09-13T17:21:44.343Z,29.64
2022-09-13T17:24:13.610Z,29.09
2022-09-13T17:26:44.506Z,29.27
2022-09-13T17:29:30.993Z,29.05
2022-09-13T17:31:59.867Z,30.01
2022-09-13T17:34:26.971Z,29.07
2022-09-13T17:36:54.679Z,29.38
2022-09-13T17:39:21.749Z,28.91
2022-09-13T17:41:48.816Z,29.08
2022-09-13T17:44:16.334Z,28.64
2022-09-13T17:46:43.317Z,29.43
2022-09-13T17:49:10.250Z,29.38
2022-09-13T17:51:37.135Z,28.88
2022-09-13T17:54:06.636Z,29.43
2022-09-13T17:56:36.294Z,29.21
2022-09-13T17:59:23.209Z,29.41
2022-09-13T18:01:53.008Z,29.22
2022-09-13T18:04:22.608Z,29.40
2022-09-13T18:06:51.456Z,29.10
2022-09-13T18:09:18.511Z,29.77
2022-09-13T18:11:45.403Z,29.92
2022-09-13T18:14:16.630Z,29.88
2022-09-13T18:16:44.443Z,29.61
2022-09-13T18:19:12.153Z,30.09
2022-09-13T18:21:39.246Z,29.91
2022-09-13T18:24:06.962Z,29.34
2022-09-13T18:26:34.650Z,29.79
2022-09-13T18:29:03.906Z,30.27
2022-09-13T18:31:33.584Z,30.15
2022-09-13T18:34:09.934Z,29.77
2022-09-13T18:36:37.624Z,30.28
2022-09-13T18:39:07.275Z,30.82
2022-09-13T18:41:42.179Z,29.97
2022-09-13T18:44:13.344Z,29.48
2022-09-13T18:46:40.570Z,29.41
2022-09-13T18:49:07.707Z,29.45
2022-09-13T18:51:40.270Z,30.22
2022-09-13T18:54:09.175Z,29.88
2022-09-13T18:56:36.090Z,30.47
2022-09-13T18:59:05.528Z,30.25
2022-09-13T19:01:37.875Z,30.37
2022-09-13T19:04:07.915Z,29.65
2022-09-13T19:06:40.287Z,30.50
2022-09-13T19:09:08.381Z,29.98
2022-09-13T19:11:49.235Z,29.98
2022-09-13T19:14:21.639Z,30.12
2022-09-13T19:16:49.012Z,30.04
2022-09-13T19:19:15.894Z,30.60
2022-09-13T19:21:43.413Z,30.61
2022-09-13T19:24:17.574Z,30.60
2022-09-13T19:26:47.130Z,30.61
2022-09-13T19:29:17.779Z,30.60
2022-09-13T19:31:49.549Z,30.44
2022-09-13T19:34:18.782Z,30.70
2022-09-13T19:36:45.590Z,30.39
2022-09-13T19:39:12.758Z,30.51
2022-09-13T19:41:40.486Z,30.56
2022-09-13T19:44:08.610Z,30.62
2022-09-13T19:46:38.335Z,30.95
2022-09-13T19:49:08.296Z,30.90
2022-09-13T19:51:37.684Z,31.06
2022-09-13T19:54:05.725Z,31.51
2022-09-13T19:56:34.958Z,31.42
2022-09-13T19:59:02.431Z,31.77
2022-09-13T20:01:32.651Z,31.96
2022-09-13T20:04:05.568Z,32.81
2022-09-13T20:06:37.808Z,32.17
2022-09-13T20:09:05.026Z,32.85
2022-09-13T20:11:33.156Z,34.01
2022-09-13T20:14:01.071Z,34.08
2022-09-13T20:16:30.153Z,34.04
2022-09-13T20:18:57.520Z,34.72
2022-09-13T20:21:25.645Z,34.46
2022-09-13T20:23:59.070Z,34.56
2022-09-13T20:26:27.184Z,34.54
2022-09-13T20:29:06.145Z,35.54
2022-09-13T20:31:36.520Z,35.19
2022-09-13T20:34:06.996Z,35.27
2022-09-13T20:36:36.108Z,35.47
2022-09-13T20:39:04.061Z,35.28
2022-09-13T20:41:31.639Z,35.17
2022-09-13T20:43:59.870Z,35.61
2022-09-13T20:46:27.275Z,35.81
2022-09-13T20:48:54.173Z,35.42
2022-09-13T20:51:22.605Z,34.85
2022-09-13T20:53:58.033Z,34.81
2022-09-13T20:56:24.879Z,35.21
2022-09-13T20:59:00.086Z,35.63
2022-09-13T21:01:29.739Z,35.97
2022-09-13T21:03:57.482Z,36.24
2022-09-13T21:06:27.166Z,35.59
2022-09-13T21:08:56.391Z,35.98
2022-09-13T21:11:34.000Z,36.94
2022-09-13T21:14:08.661Z,36.46
2022-09-13T21:16:39.063Z,36.43
2022-09-13T21:19:06.994Z,36.68
2022-09-13T21:21:36.901Z,36.64
2022-09-13T21:24:05.850Z,36.78
2022-09-13T21:26:33.152Z,36.87
2022-09-13T21:29:00.535Z,36.90
2022-09-13T21:31:30.572Z,36.56
2022-09-13T21:33:59.525Z,37.39
2022-09-13T21:36:28.179Z,37.41
2022-09-13T21:38:56.096Z,37.18
2022-09-13T21:41:25.106Z,37.51
2022-09-13T21:43:52.919Z,36.98
2022-09-13T21:46:22.189Z,36.82
2022-09-13T21:48:52.608Z,37.27
2022-09-13T21:51:24.974Z,37.51
2022-09-13T21:53:58.467Z,37.55
2022-09-13T21:56:28.161Z,37.81
2022-09-13T21:59:00.225Z,38.61
2022-09-13T22:01:29.901Z,38.18
2022-09-13T22:03:57.422Z,38.24
2022-09-13T22:06:26.735Z,39.26
2022-09-13T22:08:58.142Z,38.22
2022-09-13T22:11:27.334Z,39.77
2022-09-13T22:13:56.061Z,40.04
2022-09-13T22:16:28.846Z,39.82
2022-09-13T22:19:07.976Z,38.82
2022-09-13T22:21:38.079Z,38.73
2022-09-13T22:24:06.981Z,38.07
2022-09-13T22:26:36.521Z,38.39
2022-09-13T22:29:04.288Z,38.30
2022-09-13T22:31:32.989Z,39.16
2022-09-13T22:34:01.123Z,38.67
2022-09-13T22:36:28.831Z,39.04
2022-09-13T22:38:55.879Z,38.41
2022-09-13T22:41:25.691Z,38.71
2022-09-13T22:43:53.352Z,38.76
2022-09-13T22:46:22.933Z,38.27
2022-09-13T22:48:50.090Z,38.60
2022-09-13T22:51:18.667Z,39.10
2022-09-13T22:53:47.771Z,39.77
2022-09-13T22:56:20.265Z,40.23
2022-09-13T22:58:48.083Z,40.32
2022-09-13T23:01:20.181Z,40.96
2022-09-13T23:03:48.237Z,40.60
2022-09-13T23:06:18.994Z,40.68
2022-09-13T23:08:47.503Z,40.32
2022-09-13T23:11:23.667Z,40.42
2022-09-13T23:13:52.948Z,40.92
2022-09-13T23:16:25.243Z,40.98
2022-09-13T23:18:53.330Z,41.28
2022-09-13T23:21:22.193Z,43.06
2022-09-13T23:23:49.377Z,41.32
2022-09-13T23:26:19.289Z,40.98
2022-09-13T23:28:48.051Z,42.77
2022-09-13T23:31:18.437Z,41.90
2022-09-13T23:33:48.413Z,40.91
2022-09-13T23:36:22.775Z,41.36
2022-09-13T23:38:52.762Z,42.69
2022-09-13T23:41:20.609Z,41.16
2022-09-13T23:43:48.117Z,40.42
2022-09-13T23:46:15.249Z,41.65
2022-09-13T23:48:44.973Z,40.77
2022-09-13T23:51:14.567Z,41.18
2022-09-13T23:53:41.940Z,41.14
2022-09-13T23:56:09.267Z,41.23
2022-09-13T23:58:38.064Z,40.89
